Weather observations for the past three days for
Central Kentucky Regional Airport
Imperial (Metric)
Date Time (edt) Wind (mph) Vis. (mi.) Weather Sky Cond. Temperature (ºF) Relative Humidity Wind Chill (°F) Heat Index (°F) Pressure Precipitation (in)
Air Dwpt 6 hour altimeter (in) sea level (mb) 1 hr 3 hr 6 hr
Max. Min.
01 12:15 W 5 10.00 Fair CLR 91.4 68 46% 96 30.16 0.0
01 11:55 W 3 10.00 Fair CLR 89.6 68 49% 93 30.17 0.0
01 11:35 Calm 10.00 Fair CLR 89.6 68 49% 93 30.17 0.0
01 11:15 W 3 10.00 Fair CLR 89.6 66.2 46% 92 30.18 0.0
01 10:55 W 5 10.00 Fair CLR 87.8 68 52% 91 30.18 0.0
01 10:35 W 3 10.00 Fair CLR 87.8 68 52% 91 30.17 0.0
01 10:15 Calm 10.00 Fair CLR 86 68 55% 89 30.17 0.0
01 09:55 Calm 10.00 Fair CLR 84.2 68 58% 87 30.17 0.0
01 09:35 SW 5 10.00 Fair CLR 82.4 68 62% 85 30.17 0.0
01 09:15 SW 5 10.00 Fair CLR 80.6 68 66% 83 30.17 0.0
01 08:55 SW 3 10.00 Fair CLR 78.8 68 70% 81 30.18 0.0
01 08:35 Calm 10.00 Fair CLR 77 68 74% 79 30.18 0.0
01 08:15 Calm 10.00 Fair CLR 75.2 68 78% 76 30.17 0.0
01 07:55 SW 3 10.00 Fair CLR 73.4 68 83% 30.16 0.0
01 07:35 S 5 10.00 Fair CLR 73.4 68 83% 30.16 0.0
01 07:15 SW 6 10.00 Fair CLR 71.6 68 88% 30.15 0.0
01 06:55 SW 3 10.00 Fair CLR 71.6 68 88% 30.14 0.0
01 06:35 Calm 10.00 Fair CLR 71.6 68 88% 30.14 0.0
01 06:15 S 3 10.00 Fair CLR 71.6 68 88% 30.13 0.0
01 05:55 S 3 10.00 Fair CLR 71.6 68 88% 30.12 0.0
01 05:35 S 5 10.00 Fair CLR 73.4 68 83% 30.12 0.0
01 05:15 S 5 10.00 Fair CLR 73.4 68 83% 30.11 0.0
01 04:55 SW 6 10.00 Fair CLR 73.4 68 83% 30.1 0.0
01 04:35 S 7 10.00 Fair CLR 73.4 68 83% 30.1 0.0
01 04:15 S 7 10.00 Fair CLR 73.4 68 83% 30.1 0.0
01 03:55 S 7 10.00 Fair CLR 73.4 68 83% 30.1 0.0
01 03:35 S 5 10.00 Fair CLR 73.4 68 83% 30.11 0.0
01 03:15 S 5 10.00 Fair CLR 73.4 68 83% 30.11 0.0
01 02:55 S 3 10.00 Fair CLR 71.6 68 88% 30.11 0.0
01 02:35 Calm 10.00 Fair CLR 71.6 69.8 94% 30.12 0.0
01 02:15 Calm 10.00 Fair CLR 71.6 68 88% 30.12 0.0
01 01:55 Calm 10.00 Fair CLR 71.6 69.8 94% 30.13 0.0
01 01:35 Calm 10.00 Fair CLR 71.6 69.8 94% 30.13 0.0
01 01:15 Calm 10.00 Fair CLR 71.6 68 88% 30.13 0.0
01 00:55 S 3 10.00 Fair CLR 71.6 69.8 94% 30.13 0.0
01 00:35 S 3 10.00 Fair CLR 73.4 68 83% 30.13 0.0
01 00:15 S 3 10.00 Fair CLR 73.4 69.8 89% 30.13 0.0
31 23:55 S 5 10.00 Fair CLR 75.2 68 78% 76 30.13 0.0
31 23:35 S 5 10.00 Fair CLR 75.2 68 78% 76 30.13 0.0
31 23:15 Calm 10.00 Fair CLR 75.2 69.8 83% 75 30.13 0.0
31 22:55 Calm 7.00 Fair CLR 77 69.8 79% 79 30.13 0.0
31 22:35 Calm 10.00 Fair CLR 78.8 68 70% 81 30.13 0.0
31 22:15 S 3 10.00 Fair CLR 78.8 69.8 74% 81 30.13 0.0
31 21:55 S 5 10.00 Fair CLR 80.6 69.8 70% 84 30.12 0.0
31 21:35 S 5 10.00 Fair CLR 80.6 69.8 70% 84 30.11 0.0
31 21:15 S 5 10.00 Fair CLR 80.6 69.8 70% 84 30.1 0.0
31 20:55 S 5 10.00 Fair CLR 82.4 69.8 66% 86 30.1 0.0
31 20:35 S 5 10.00 Fair CLR 82.4 68 62% 85 30.1 0.0
31 20:15 S 6 10.00 Fair CLR 86 68 55% 89 30.1 0.0
31 19:35 Calm 10.00 Fair CLR 89.6 66.2 46% 92 30.1 0.0
31 19:15 Calm 10.00 Fair CLR 91.4 64.4 41% 93 30.1 0.0
31 18:55 Calm 10.00 Fair CLR 91.4 64.4 41% 93 30.11 0.0
31 18:35 Calm 10.00 Fair CLR 93.2 64.4 39% 95 30.11 0.0
31 18:15 Calm 10.00 Fair CLR 93.2 64.4 39% 95 30.12 0.0
31 17:55 Calm 10.00 Fair CLR 91.4 64.4 41% 93 30.12 0.0
31 17:35 Calm 10.00 Fair CLR 91.4 64.4 41% 93 30.12 0.0
31 17:15 W 3 10.00 Fair CLR 93.2 64.4 39% 95 30.13 0.0
31 16:55 NW 5 10.00 Fair CLR 93.2 64.4 39% 95 30.13 0.0
31 16:35 Calm 10.00 Fair CLR 93.2 64.4 39% 95 30.13 0.0
31 16:15 N 3 10.00 Partly Cloudy SCT050 91.4 64.4 41% 93 30.14 0.0
31 15:55 Calm 10.00 Partly Cloudy SCT048 SCT055 SCT070 91.4 66.2 44% 94 30.14 0.0
31 15:35 SW 3 10.00 Partly Cloudy SCT048 93.2 64.4 39% 95 30.15 0.0
31 15:15 NW 5 10.00 Partly Cloudy SCT090 89.6 66.2 46% 92 30.15 0.0
31 14:55 W 3 10.00 Mostly Cloudy SCT046 SCT055 BKN090 89.6 66.2 46% 92 30.16 0.0
31 14:35 Calm 10.00 Partly Cloudy SCT060 SCT095 91.4 68 46% 96 30.17 0.0
31 14:15 Calm 10.00 Partly Cloudy SCT085 87.8 68 52% 91 30.17 0.0
31 13:55 W 3 10.00 Partly Cloudy SCT075 SCT085 87.8 68 52% 91 30.17 0.0
31 13:35 W 6 10.00 Partly Cloudy SCT075 87.8 68 52% 91 30.18 0.0
31 13:15 W 5 10.00 Fair CLR 87.8 68 52% 91 30.18 0.0
31 12:55 W 8 10.00 Partly Cloudy SCT055 89.6 68 49% 93 30.18 0.0
31 12:35 W 6 10.00 Partly Cloudy SCT037 87.8 68 52% 91 30.19 0.0
31 12:15 W 7 10.00 Fair CLR 89.6 68 49% 93 30.19 0.0
31 11:55 W 6 10.00 Partly Cloudy SCT060 87.8 68 52% 91 30.19 0.0
31 11:35 W 7 10.00 Fair CLR 87.8 68 52% 91 30.2 0.0
31 11:15 W 6 10.00 Fair CLR 86 69.8 59% 91 30.19 0.0
31 10:55 SW 7 10.00 Fair CLR 86 68 55% 89 30.19 0.0
31 10:35 W 5 10.00 Fair CLR 84.2 68 58% 87 30.18 0.0
31 10:15 W 7 10.00 Fair CLR 82.4 68 62% 85 30.18 0.0
31 09:55 W 7 10.00 Fair CLR 80.6 68 66% 83 30.18 0.0
31 09:35 SW 6 10.00 Fair CLR 80.6 68 66% 83 30.18 0.0
31 09:15 SW 5 10.00 Fair CLR 78.8 68 70% 81 30.18 0.0
31 08:55 SW 3 10.00 Fair CLR 77 68 74% 79 30.18 0.0
31 08:35 SW 5 10.00 Fair CLR 75.2 66.2 74% 77 30.18 0.0
31 08:15 SW 6 10.00 Fair CLR 73.4 66.2 78% 30.17 0.0
31 07:55 S 8 10.00 Fair CLR 73.4 66.2 78% 30.16 0.0
31 07:35 S 7 10.00 Fair CLR 71.6 64.4 78% 30.16 0.0
31 07:15 S 8 10.00 Fair CLR 71.6 64.4 78% 30.16 0.0
31 06:55 S 7 10.00 Fair CLR 73.4 64.4 74% 30.15 0.0
31 06:35 SW 6 10.00 Fair CLR 73.4 64.4 74% 30.14 0.0
31 06:15 S 8 10.00 Fair CLR 73.4 64.4 74% 30.13 0.0
31 05:55 S 6 10.00 Fair CLR 73.4 64.4 74% 30.13 0.0
31 05:35 S 7 10.00 Fair CLR 73.4 64.4 74% 30.13 0.0
31 05:15 S 7 10.00 Fair CLR 73.4 66.2 78% 30.13 0.0
31 04:55 S 5 10.00 Fair CLR 73.4 66.2 78% 30.13 0.0
31 04:35 S 7 10.00 Fair CLR 73.4 66.2 78% 30.12 0.0
31 04:15 S 6 10.00 Fair CLR 73.4 66.2 78% 30.12 0.0
31 03:55 S 5 10.00 Fair CLR 73.4 66.2 78% 30.12 0.0
31 03:35 S 6 10.00 Fair CLR 71.6 66.2 83% 30.12 0.0
31 03:15 S 5 10.00 Fair CLR 73.4 66.2 78% 30.13 0.0
31 02:55 SW 3 10.00 Fair CLR 73.4 66.2 78% 30.13 0.0
31 02:35 S 3 10.00 Fair CLR 73.4 66.2 78% 30.13 0.0
31 02:15 S 3 10.00 Fair CLR 73.4 66.2 78% 30.13 0.0
31 01:55 S 6 10.00 Partly Cloudy SCT060 73.4 66.2 78% 30.13 0.0
31 01:35 S 5 10.00 Mostly Cloudy BKN060 71.6 68 88% 30.13 0.0
31 01:15 Calm 10.00 Partly Cloudy SCT060 75.2 68 78% 76 30.14 0.0
31 00:55 S 3 10.00 Fair CLR 75.2 68 78% 76 30.13 0.0
31 00:35 S 5 10.00 Fair CLR 77 68 74% 79 30.13 0.0
31 00:15 S 5 10.00 Fair CLR 77 68 74% 79 30.14 0.0
30 23:55 S 5 10.00 Fair CLR 77 68 74% 79 30.14 0.0
30 23:35 S 5 10.00 Fair CLR 73.4 68 83% 30.14 0.0
30 23:15 SE 5 10.00 Fair CLR 73.4 68 83% 30.15 0.0
30 22:55 SE 3 10.00 Fair CLR 73.4 68 83% 30.14 0.0
30 22:35 SE 3 10.00 Fair CLR 73.4 68 83% 30.14 0.0
30 22:15 S 5 10.00 Fair CLR 73.4 68 83% 30.13 0.0
30 21:55 SE 5 10.00 Fair CLR 75.2 68 78% 76 30.13 0.0
30 21:35 SE 5 10.00 Fair CLR 77 66.2 69% 79 30.13 0.0
30 21:15 SE 3 10.00 Fair CLR 77 66.2 69% 79 30.13 0.0
30 20:55 SE 3 10.00 Fair CLR 78.8 64.4 61% 81 30.12 0.0
30 20:35 Calm 10.00 Fair CLR 80.6 64.4 58% 82 30.11 0.0
30 20:15 S 3 10.00 Fair CLR 84.2 62.6 48% 85 30.1 0.0
30 19:55 S 5 10.00 Fair CLR 86 60.8 43% 86 30.1 0.0
30 19:35 Calm 10.00 Fair CLR 87.8 60.8 40% 88 30.11 0.0
30 19:15 Calm 10.00 Fair CLR 89.6 64.4 43% 91 30.11 0.0
30 18:55 Calm 10.00 Fair CLR 91.4 59 34% 91 30.11 0.0
30 18:35 Calm 10.00 Fair CLR 91.4 59 34% 91 30.11 0.0
30 18:15 Calm 10.00 Fair CLR 91.4 59 34% 91 30.11 0.0
30 17:55 Calm 10.00 Fair CLR 91.4 59 34% 91 30.11 0.0
30 17:35 Calm 10.00 Fair CLR 91.4 59 34% 91 30.11 0.0
30 17:15 W 5 10.00 Fair CLR 91.4 57.2 32% 90 30.12 0.0
30 16:55 W 3 10.00 Fair CLR 93.2 59 32% 93 30.12 0.0
30 16:35 Calm 10.00 Fair CLR 93.2 57.2 30% 92 30.12 0.0
30 16:15 NW 6 10.00 Fair CLR 91.4 57.2 32% 90 30.13 0.0
30 15:55 SW 5 10.00 Fair CLR 93.2 57.2 30% 92 30.14 0.0
30 15:35 W 7 10.00 Partly Cloudy SCT060 91.4 59 34% 91 30.14 0.0
30 15:15 NW 7 10.00 Fair CLR 91.4 59 34% 91 30.16 0.0
30 14:55 W 7 10.00 Partly Cloudy SCT060 91.4 57.2 32% 90 30.16 0.0
30 14:35 W 7 10.00 Fair CLR 91.4 57.2 32% 90 30.17 0.0
30 14:15 SW 7 10.00 Fair CLR 91.4 57.2 32% 90 30.18 0.0
30 13:55 W 8 10.00 Fair CLR 89.6 59 36% 89 30.18 0.0
30 13:35 SW 8 10.00 Fair CLR 89.6 55.4 31% 88 30.18 0.0
30 13:15 W 9 10.00 Partly Cloudy SCT070 87.8 60.8 40% 88 30.19 0.0
30 12:55 W 7 10.00 Partly Cloudy SCT041 SCT050 SCT065 87.8 62.6 43% 88 30.2 0.0
30 12:35 W 7 10.00 Partly Cloudy SCT036 SCT042 SCT055 87.8 66.2 49% 90 30.2 0.0
30 12:15 W 9 10.00 Fair CLR 86 64.4 49% 87 30.2 0.0
30 11:55 W 8 10.00 Fair CLR 86 68 55% 89 30.2 0.0
30 11:35 SW 10 G 16 10.00 Fair CLR 86 68 55% 89 30.2 0.0
30 11:15 SW 7 10.00 Fair CLR 84.2 68 58% 87 30.2 0.0
30 10:55 SW 12 10.00 Fair CLR 82.4 68 62% 85 30.2 0.0
30 10:35 SW 12 10.00 Fair CLR 82.4 68 62% 85 30.2 0.0
30 10:15 SW 13 10.00 Fair CLR 80.6 68 66% 83 30.19 0.0
30 09:55 SW 12 10.00 Fair CLR 78.8 68 70% 81 30.18 0.0
30 09:35 S 12 G 17 10.00 Fair CLR 78.8 68 70% 81 30.18 0.0
30 09:15 S 12 10.00 Fair CLR 77 68 74% 79 30.18 0.0
30 08:55 S 8 10.00 Fair CLR 75.2 66.2 74% 77 30.18 0.0
30 08:35 S 7 10.00 Fair CLR 73.4 66.2 78% 30.18 0.0
30 08:15 S 7 10.00 Fair CLR 71.6 66.2 83% 30.17 0.0
30 07:55 S 5 10.00 Fair CLR 69.8 64.4 83% 30.16 0.0
30 07:35 S 6 10.00 Fair CLR 69.8 64.4 83% 30.16 0.0
30 07:15 S 5 10.00 Fair CLR 69.8 64.4 83% 30.16 0.0
30 06:55 S 7 10.00 Fair CLR 71.6 64.4 78% 30.15 0.0
30 06:35 S 7 10.00 Fair CLR 71.6 64.4 78% 30.15 0.0
30 06:15 S 6 10.00 Fair CLR 71.6 64.4 78% 30.15 0.0
30 05:55 S 5 10.00 Fair CLR 69.8 64.4 83% 30.15 0.0
30 05:35 S 6 10.00 Fair CLR 69.8 64.4 83% 30.15 0.0
30 05:15 S 6 10.00 Partly Cloudy SCT050 68 64.4 88% 30.16 0.0
30 04:55 Calm 10.00 Fair CLR 66.2 64.4 94% 30.15 0.0
30 04:35 Calm 10.00 Partly Cloudy SCT050 SCT070 68 64.4 88% 30.15 0.0
30 04:15 Calm 10.00 Partly Cloudy SCT050 SCT070 68 64.4 88% 30.15 0.0
30 03:55 Calm 10.00 Fair CLR 68 64.4 88% 30.15 0.0
30 03:35 S 3 10.00 Fair CLR 69.8 62.6 78% 30.15 0.0
30 03:15 S 3 10.00 Fair CLR 68 64.4 88% 30.15 0.0
30 02:55 Calm 10.00 Partly Cloudy SCT070 68 62.6 83% 30.15 0.0
30 02:35 SE 3 10.00 Partly Cloudy SCT070 68 62.6 83% 30.15 0.0
30 02:15 Calm 10.00 Fair CLR 68 66.2 94% 30.16 0.0
30 01:55 Calm 10.00 Fair CLR 68 64.4 88% 30.16 0.0
30 01:35 SE 3 10.00 Fair CLR 68 66.2 94% 30.16 0.0
30 01:15 SE 3 10.00 Partly Cloudy SCT070 68 64.4 88% 30.16 0.0
30 00:55 SE 3 10.00 Fair CLR 69.8 64.4 83% 30.16 0.0
30 00:35 SE 5 10.00 Partly Cloudy SCT070 69.8 66.2 88% 30.15 0.0
30 00:15 Calm 10.00 Mostly Cloudy BKN070 69.8 64.4 83% 30.16 0.0
29 23:55 SE 3 10.00 Fair CLR 69.8 66.2 88% 30.16 0.0
29 23:35 SE 3 10.00 Fair CLR 69.8 68 94% 30.15 0.0
29 23:15 SE 3 10.00 Fair CLR 69.8 64.4 83% 30.15 0.0
29 22:55 SE 3 10.00 Fair CLR 69.8 64.4 83% 30.15 0.0
29 22:35 Calm 10.00 Fair CLR 69.8 64.4 83% 30.15 0.0
29 22:15 SE 6 10.00 Fair CLR 71.6 64.4 78% 30.14 0.0
29 21:55 Calm 10.00 Fair CLR 71.6 64.4 78% 30.14 0.0
29 21:35 Calm 10.00 Fair CLR 73.4 64.4 74% 30.14 0.0
29 21:15 SE 3 10.00 Fair CLR 73.4 64.4 74% 30.13 0.0
29 20:55 Calm 10.00 Fair CLR 77 64.4 65% 79 30.13 0.0
29 20:35 E 5 10.00 Fair CLR 77 62.6 61% 79 30.13 0.0
29 20:15 E 3 10.00 Fair CLR 78.8 62.6 58% 80 30.13 0.0
29 19:55 Calm 10.00 Fair CLR 80.6 62.6 54% 82 30.13 0.0
29 19:35 E 3 10.00 Fair CLR 82.4 62.6 51% 83 30.13 0.0
29 19:15 E 3 10.00 Fair CLR 84.2 62.6 48% 85 30.13 0.0
29 18:55 Calm 10.00 Fair CLR 86 60.8 43% 86 30.13 0.0
29 18:35 NE 3 10.00 Partly Cloudy SCT055 87.8 60.8 40% 88 30.12 0.0
29 18:15 Calm 10.00 Partly Cloudy SCT055 87.8 60.8 40% 88 30.13 0.0
29 17:55 NE 3 10.00 Partly Cloudy SCT055 87.8 60.8 40% 88 30.13 0.0
29 17:35 NE 5 10.00 Partly Cloudy SCT055 SCT065 89.6 60.8 38% 90 30.13 0.0
29 17:15 E 6 10.00 Mostly Cloudy SCT065 BKN075 89.6 60.8 38% 90 30.13 0.0
29 16:55 E 3 10.00 Partly Cloudy SCT050 SCT075 89.6 59 36% 89 30.13 0.0
29 16:35 E 5 10.00 Partly Cloudy SCT055 SCT065 87.8 60.8 40% 88 30.14 0.0
29 16:15 Calm 10.00 Partly Cloudy SCT050 89.6 59 36% 89 30.15 0.0
29 15:55 Calm 10.00 Partly Cloudy SCT050 SCT060 SCT070 87.8 59 38% 87 30.16 0.0
29 15:35 Calm 10.00 Partly Cloudy SCT060 SCT070 86 59 40% 85 30.16 0.0
29 15:15 N 3 10.00 Mostly Cloudy SCT050 BKN070 89.6 60.8 38% 90 30.16 0.0
29 14:55 N 3 10.00 Partly Cloudy SCT050 SCT070 89.6 59 36% 89 30.17 0.0
29 14:35 N 3 10.00 Partly Cloudy SCT070 87.8 60.8 40% 88 30.18 0.0
29 14:15 NE 5 10.00 Partly Cloudy SCT048 SCT050 87.8 60.8 40% 88 30.18 0.0
29 13:55 Calm 10.00 Partly Cloudy SCT048 SCT055 86 60.8 43% 86 30.18 0.0
29 13:35 N 5 10.00 Partly Cloudy SCT046 87.8 62.6 43% 88 30.19 0.0
29 13:15 Calm 10.00 Partly Cloudy SCT044 86 60.8 43% 86 30.19 0.0
29 12:35 SE 5 10.00 Fair CLR 86 62.6 46% 87 30.2 0.0
Date Time (edt) Wind (mph) Vis. (mi.) Weather Sky Cond. Air Dwpt Max. Min. Relative Humidity Wind Chill (°F) Heat Index (°F) altimeter (in) sea level (mb) 1 hr 3 hr 6 hr
6 hour
Temperature (ºF) Pressure Precipitation (in)